Time;durP1;ratioP1;P1;durP2;ratioP2;P2;SDS_P1;SDS_P2;PMS_P1;PMS_P2;Temp;Humidity;BMP_temperature;BMP_pressure;BME280_temperature;BME280_humidity;BME280_pressure;Samples;Min_cycle;Max_cycle;Signal;HPM_P1;HPM_P2
2021/11/27 00:02:14;;;;;;;6.03;4.05;;;5.40;99.90;;;;;;5056867;28;20208;-81
2021/11/27 00:04:41;;;;;;;7.13;4.18;;;5.60;99.90;;;;;;5057239;28;20209;-80
2021/11/27 00:07:08;;;;;;;6.65;3.50;;;5.40;99.90;;;;;;5057570;28;20211;-80
2021/11/27 00:09:35;;;;;;;8.05;4.18;;;5.50;99.90;;;;;;5059350;28;20226;-79
2021/11/27 00:12:02;;;;;;;7.20;3.72;;;5.40;99.90;;;;;;5058046;28;20232;-80
2021/11/27 00:14:31;;;;;;;6.68;3.53;;;5.50;99.90;;;;;;5056105;28;20221;-80
2021/11/27 00:16:58;;;;;;;6.65;3.90;;;5.30;99.90;;;;;;5055907;28;20674;-79
2021/11/27 00:19:25;;;;;;;6.57;3.90;;;5.30;99.90;;;;;;5056845;28;20221;-81
2021/11/27 00:21:52;;;;;;;6.15;3.78;;;5.40;99.90;;;;;;5058556;28;20205;-79
2021/11/27 00:24:19;;;;;;;7.60;4.43;;;5.30;99.90;;;;;;5056559;28;20583;-80
2021/11/27 00:26:45;;;;;;;7.18;4.60;;;5.30;99.90;;;;;;5057258;28;20210;-80
2021/11/27 00:29:12;;;;;;;7.20;4.30;;;5.40;99.90;;;;;;5060145;28;20324;-80
2021/11/27 00:31:42;;;;;;;6.00;3.83;;;5.30;99.90;;;;;;5060050;28;20226;-78
2021/11/27 00:34:09;;;;;;;5.95;4.32;;;5.30;99.90;;;;;;5061092;28;20237;-78
2021/11/27 00:36:36;;;;;;;7.50;3.80;;;5.40;99.90;;;;;;5059090;28;20554;-80
2021/11/27 00:39:04;;;;;;;7.25;3.55;;;5.40;99.90;;;;;;5060140;28;20234;-80
2021/11/27 00:41:31;;;;;;;6.13;3.97;;;5.20;99.90;;;;;;5064618;28;20209;-79
2021/11/27 00:43:58;;;;;;;5.65;3.22;;;5.30;99.90;;;;;;5067795;28;20212;-80
2021/11/27 00:46:25;;;;;;;6.30;3.80;;;5.50;99.90;;;;;;5059066;28;20214;-80
2021/11/27 00:48:53;;;;;;;7.40;3.78;;;5.40;99.90;;;;;;5059347;28;20595;-79
2021/11/27 00:51:26;;;;;;;5.50;3.40;;;5.20;99.90;;;;;;5061744;28;20210;-78
2021/11/27 00:53:53;;;;;;;10.93;4.40;;;5.30;99.90;;;;;;5069639;28;20198;-79
2021/11/27 00:56:20;;;;;;;5.78;3.72;;;5.50;99.90;;;;;;5059390;28;20217;-79
2021/11/27 00:58:48;;;;;;;6.72;4.05;;;5.30;99.90;;;;;;5059535;28;20210;-81
2021/11/27 01:01:18;;;;;;;7.88;4.18;;;5.30;99.90;;;;;;5059033;28;20667;-80
2021/11/27 01:03:45;;;;;;;7.55;4.25;;;5.40;99.90;;;;;;5058829;28;20216;-79
2021/11/27 01:06:16;;;;;;;6.20;3.50;;;5.40;99.90;;;;;;5059696;28;20210;-80
2021/11/27 01:08:44;;;;;;;8.40;4.13;;;5.20;99.90;;;;;;5059343;28;20198;-79
2021/11/27 01:11:15;;;;;;;9.20;5.38;;;5.30;99.90;;;;;;5059088;28;20213;-79
2021/11/27 01:13:44;;;;;;;9.43;4.43;;;5.40;99.90;;;;;;5059507;28;20190;-79
2021/11/27 01:16:12;;;;;;;6.97;4.40;;;5.30;99.90;;;;;;5059246;28;20202;-79
2021/11/27 01:18:39;;;;;;;8.48;3.78;;;5.40;99.90;;;;;;5062389;28;20206;-78
2021/11/27 01:21:09;;;;;;;7.30;4.13;;;5.40;99.90;;;;;;5062505;28;20213;-79
2021/11/27 01:23:39;;;;;;;6.50;3.83;;;5.50;99.90;;;;;;5072499;28;20198;-80
2021/11/27 01:26:06;;;;;;;6.72;4.55;;;5.60;99.90;;;;;;5074628;28;20229;-80
2021/11/27 01:28:33;;;;;;;9.10;4.55;;;5.30;99.90;;;;;;5060738;28;20328;-80
2021/11/27 01:31:01;;;;;;;6.85;3.78;;;5.50;99.90;;;;;;5071476;28;20264;-79
2021/11/27 01:33:29;;;;;;;11.25;4.05;;;5.10;99.90;;;;;;5065614;28;20293;-80
2021/11/27 01:35:57;;;;;;;7.38;4.20;;;5.30;99.90;;;;;;5062351;28;20210;-80
2021/11/27 01:38:24;;;;;;;9.27;4.40;;;5.20;99.90;;;;;;5059784;28;20667;-79
2021/11/27 01:40:52;;;;;;;6.82;4.10;;;5.50;99.90;;;;;;5059105;28;20542;-80
2021/11/27 01:43:20;;;;;;;8.85;4.93;;;5.30;99.90;;;;;;5058816;28;20204;-81
2021/11/27 01:45:48;;;;;;;7.22;4.82;;;5.30;99.90;;;;;;5058625;28;20662;-79
2021/11/27 01:48:18;;;;;;;6.20;3.78;;;5.30;99.90;;;;;;5058098;28;20701;-80
2021/11/27 01:50:47;;;;;;;7.70;4.15;;;5.40;99.90;;;;;;5057918;28;20225;-78
2021/11/27 01:53:14;;;;;;;8.23;4.57;;;5.30;99.90;;;;;;5058285;28;20749;-80
2021/11/27 01:55:42;;;;;;;8.38;5.00;;;5.30;99.90;;;;;;5057931;28;20206;-80
2021/11/27 01:58:10;;;;;;;7.13;4.70;;;5.30;99.90;;;;;;5058804;28;20213;-78
2021/11/27 02:00:41;;;;;;;7.30;4.70;;;5.40;99.90;;;;;;5058075;28;20316;-79
2021/11/27 02:03:08;;;;;;;9.30;4.75;;;5.40;99.90;;;;;;5058181;28;20297;-79
2021/11/27 02:05:35;;;;;;;7.50;5.03;;;5.20;99.90;;;;;;5058625;28;20609;-80
2021/11/27 02:08:02;;;;;;;8.07;4.45;;;5.30;99.90;;;;;;5058192;28;20214;-81
2021/11/27 02:10:29;;;;;;;7.13;4.10;;;5.30;99.90;;;;;;5057816;28;20233;-79
2021/11/27 02:12:56;;;;;;;7.05;4.15;;;5.30;99.90;;;;;;5057155;28;20226;-78
2021/11/27 02:15:24;;;;;;;7.15;4.43;;;5.40;99.90;;;;;;5057939;28;20215;-79
2021/11/27 02:17:51;;;;;;;7.38;4.50;;;5.50;99.90;;;;;;5057935;28;20212;-80
2021/11/27 02:20:18;;;;;;;7.88;5.00;;;5.20;99.90;;;;;;5057291;28;20238;-80
2021/11/27 02:22:47;;;;;;;8.40;4.53;;;5.40;99.90;;;;;;5057537;28;20209;-78
2021/11/27 02:25:16;;;;;;;6.47;3.75;;;5.40;99.90;;;;;;5057626;28;20206;-80
2021/11/27 02:27:43;;;;;;;7.80;4.43;;;5.30;99.90;;;;;;5057078;28;20210;-79
2021/11/27 02:30:13;;;;;;;7.45;3.78;;;5.40;99.90;;;;;;5057561;28;20221;-78
2021/11/27 02:32:40;;;;;;;6.85;4.60;;;5.20;99.90;;;;;;5057106;28;20222;-78
2021/11/27 02:35:07;;;;;;;8.32;5.07;;;5.30;99.90;;;;;;5057897;28;20206;-79
2021/11/27 02:37:34;;;;;;;6.88;3.33;;;5.30;99.90;;;;;;5068184;28;20221;-78
2021/11/27 02:40:03;;;;;;;7.75;3.80;;;5.40;99.90;;;;;;5058878;28;20651;-80
2021/11/27 02:42:30;;;;;;;6.05;3.92;;;5.20;99.90;;;;;;5058674;28;20202;-79
2021/11/27 02:44:57;;;;;;;5.85;3.58;;;5.50;99.90;;;;;;5066746;28;20241;-78
2021/11/27 02:47:24;;;;;;;7.00;4.22;;;5.40;99.90;;;;;;5064199;28;20210;-78
2021/11/27 02:49:51;;;;;;;6.93;3.95;;;5.50;99.90;;;;;;5058603;28;20226;-80
2021/11/27 02:52:20;;;;;;;6.45;3.72;;;5.40;99.90;;;;;;5057816;28;20587;-78
2021/11/27 02:54:47;;;;;;;5.32;3.97;;;5.30;99.90;;;;;;5057084;28;20210;-79
2021/11/27 02:57:15;;;;;;;6.38;3.58;;;5.50;99.90;;;;;;5059459;28;20292;-78
2021/11/27 02:59:43;;;;;;;6.72;4.00;;;5.40;99.90;;;;;;5059790;28;20234;-79
2021/11/27 03:02:10;;;;;;;6.65;3.60;;;5.50;99.90;;;;;;5059925;28;20202;-80
2021/11/27 03:04:38;;;;;;;7.70;3.72;;;5.30;99.90;;;;;;5057722;28;20248;-78
2021/11/27 03:07:06;;;;;;;5.85;3.47;;;5.20;99.90;;;;;;5057352;28;20673;-79
2021/11/27 03:09:34;;;;;;;8.57;4.07;;;5.20;99.90;;;;;;5056832;28;20226;-80
2021/11/27 03:12:03;;;;;;;6.60;4.20;;;5.40;99.90;;;;;;5057259;28;20210;-79
2021/11/27 03:14:31;;;;;;;6.78;3.83;;;5.40;99.90;;;;;;5057345;28;20210;-79
2021/11/27 03:16:59;;;;;;;8.88;4.53;;;5.20;99.90;;;;;;5057429;28;20220;-80
2021/11/27 03:19:26;;;;;;;6.78;3.97;;;5.20;99.90;;;;;;5056443;28;20321;-78
2021/11/27 03:21:53;;;;;;;8.60;3.80;;;5.20;99.90;;;;;;5056955;28;20220;-79
2021/11/27 03:24:20;;;;;;;7.93;3.83;;;5.50;99.90;;;;;;5057381;28;20206;-79
2021/11/27 03:26:47;;;;;;;6.00;3.60;;;5.50;99.90;;;;;;5056904;28;20557;-79
2021/11/27 03:29:14;;;;;;;6.10;3.63;;;5.40;99.90;;;;;;5056574;28;20244;-79
2021/11/27 03:31:42;;;;;;;6.95;3.50;;;5.40;99.90;;;;;;5057611;28;20206;-79
2021/11/27 03:34:09;;;;;;;5.43;3.38;;;5.50;99.90;;;;;;5056858;28;20601;-80
2021/11/27 03:36:36;;;;;;;7.47;3.80;;;5.50;99.90;;;;;;5056410;28;20206;-79
2021/11/27 03:39:05;;;;;;;6.78;3.92;;;5.60;99.90;;;;;;5056468;28;20230;-79
2021/11/27 03:41:32;;;;;;;7.40;3.65;;;5.50;99.90;;;;;;5056555;28;20580;-79
2021/11/27 03:43:59;;;;;;;7.30;4.43;;;5.40;99.90;;;;;;5056413;28;20671;-79
2021/11/27 03:46:26;;;;;;;5.45;3.33;;;5.50;99.90;;;;;;5057844;28;20217;-78
2021/11/27 03:48:55;;;;;;;6.50;3.70;;;5.70;99.90;;;;;;5057115;28;20230;-79
2021/11/27 03:51:24;;;;;;;5.60;3.17;;;5.80;99.90;;;;;;5068822;28;20206;-77
2021/11/27 03:53:51;;;;;;;5.75;3.30;;;5.50;99.90;;;;;;5068913;28;20221;-79
2021/11/27 03:56:20;;;;;;;6.28;3.78;;;5.60;99.90;;;;;;5062506;28;20202;-78
2021/11/27 03:58:47;;;;;;;7.45;3.45;;;5.70;99.90;;;;;;5070925;28;20209;-79
2021/11/27 04:01:17;;;;;;;5.82;3.40;;;5.50;99.90;;;;;;5064187;28;20197;-80
2021/11/27 04:03:45;;;;;;;9.05;3.72;;;5.50;99.90;;;;;;5066891;28;20198;-79
2021/11/27 04:06:14;;;;;;;6.15;2.95;;;5.50;99.90;;;;;;5071941;28;20212;-78
2021/11/27 04:08:41;;;;;;;6.50;3.60;;;5.40;99.90;;;;;;5071976;28;20296;-79
2021/11/27 04:11:07;;;;;;;6.05;3.30;;;5.50;99.90;;;;;;5063991;28;20372;-79
2021/11/27 04:13:35;;;;;;;5.53;3.10;;;5.60;99.90;;;;;;5065330;28;20225;-78
2021/11/27 04:16:02;;;;;;;5.70;3.10;;;5.50;99.90;;;;;;5069801;28;20574;-80
2021/11/27 04:18:29;;;;;;;5.07;2.72;;;5.30;99.90;;;;;;5061846;28;20206;-79
2021/11/27 04:20:56;;;;;;;5.82;2.95;;;5.40;99.90;;;;;;5061811;28;20210;-79
2021/11/27 04:23:25;;;;;;;4.90;3.08;;;5.40;99.90;;;;;;5064058;28;20213;-78
2021/11/27 04:25:53;;;;;;;5.07;2.50;;;5.30;99.90;;;;;;5073655;28;20210;-78
2021/11/27 04:28:19;;;;;;;4.20;2.40;;;5.60;99.90;;;;;;5070115;28;20210;-79
2021/11/27 04:30:46;;;;;;;5.55;2.15;;;5.60;99.90;;;;;;5074382;28;20232;-79
2021/11/27 04:33:14;;;;;;;3.95;1.98;;;5.60;99.90;;;;;;5071835;28;20244;-79
2021/11/27 04:35:41;;;;;;;4.10;1.98;;;5.50;99.90;;;;;;5073031;28;20214;-79
2021/11/27 04:38:08;;;;;;;7.15;2.80;;;5.40;99.90;;;;;;5064250;28;20206;-79
2021/11/27 04:40:37;;;;;;;5.90;2.40;;;5.50;99.90;;;;;;5059913;28;20235;-79
2021/11/27 04:43:04;;;;;;;3.97;1.63;;;5.60;99.90;;;;;;5060259;28;20198;-79
2021/11/27 04:45:32;;;;;;;4.72;1.50;;;5.40;99.90;;;;;;5059320;28;20203;-79
2021/11/27 04:48:00;;;;;;;4.28;2.00;;;5.50;99.90;;;;;;5059639;28;20213;-79
2021/11/27 04:50:27;;;;;;;3.50;1.60;;;5.50;99.90;;;;;;5060123;28;20226;-78
2021/11/27 04:52:54;;;;;;;4.18;2.30;;;5.60;99.90;;;;;;5058377;28;20592;-78
2021/11/27 04:55:21;;;;;;;3.80;1.52;;;5.50;99.90;;;;;;5063552;28;20212;-78
2021/11/27 04:57:50;;;;;;;5.18;1.90;;;5.40;99.90;;;;;;5063300;28;20213;-78
2021/11/27 05:00:20;;;;;;;3.88;2.17;;;5.50;99.90;;;;;;5063894;28;20584;-78
2021/11/27 05:02:46;;;;;;;3.65;1.50;;;5.50;99.90;;;;;;5062592;28;20206;-78
2021/11/27 05:05:14;;;;;;;3.70;1.60;;;5.60;99.90;;;;;;5059943;28;20670;-78
2021/11/27 05:07:41;;;;;;;3.67;1.42;;;5.60;99.90;;;;;;5058643;28;20218;-78
2021/11/27 05:10:08;;;;;;;4.93;1.60;;;5.90;99.90;;;;;;5060248;28;20321;-78
2021/11/27 05:12:35;;;;;;;3.80;1.60;;;5.70;99.90;;;;;;5058772;28;20214;-78
2021/11/27 05:15:04;;;;;;;2.90;1.20;;;5.50;99.90;;;;;;5058964;28;20206;-78
2021/11/27 05:17:31;;;;;;;3.45;1.50;;;5.60;99.90;;;;;;5059483;28;20206;-79
2021/11/27 05:19:58;;;;;;;3.53;1.45;;;5.50;99.90;;;;;;5066521;28;20582;-78
2021/11/27 05:22:25;;;;;;;3.17;1.50;;;5.50;99.90;;;;;;5061380;28;20210;-78
2021/11/27 05:24:52;;;;;;;4.03;1.30;;;5.40;99.90;;;;;;5060411;28;20206;-78
2021/11/27 05:27:20;;;;;;;3.40;1.83;;;5.40;99.90;;;;;;5060527;28;20212;-79
2021/11/27 05:29:48;;;;;;;4.43;1.30;;;5.60;99.90;;;;;;5059081;28;20237;-79
2021/11/27 05:32:23;;;;;;;3.55;1.60;;;5.60;99.90;;;;;;5058779;28;20210;-78
2021/11/27 05:34:51;;;;;;;3.33;1.27;;;5.70;99.90;;;;;;5058595;28;20214;-78
2021/11/27 05:37:18;;;;;;;5.55;1.40;;;5.50;99.90;;;;;;5058528;28;20198;-78
2021/11/27 05:39:46;;;;;;;3.50;1.20;;;5.40;99.90;;;;;;5058058;28;20234;-79
2021/11/27 05:42:15;;;;;;;3.97;1.77;;;5.40;99.90;;;;;;5067133;28;20206;-78
2021/11/27 05:44:44;;;;;;;3.78;1.90;;;5.50;99.90;;;;;;5058517;28;20215;-78
2021/11/27 05:47:11;;;;;;;3.72;1.70;;;5.60;99.90;;;;;;5058660;28;20228;-78
2021/11/27 05:49:39;;;;;;;4.97;1.80;;;5.50;99.90;;;;;;5058051;28;20230;-78
2021/11/27 05:52:07;;;;;;;4.15;1.70;;;5.40;99.90;;;;;;5058822;28;20209;-78
2021/11/27 05:54:34;;;;;;;4.25;1.80;;;5.70;99.90;;;;;;5058271;28;20563;-79
2021/11/27 05:57:02;;;;;;;3.40;1.30;;;5.70;99.90;;;;;;5058781;28;20210;-78
2021/11/27 05:59:29;;;;;;;3.10;1.27;;;5.70;99.90;;;;;;5086816;22;20224;-80
2021/11/27 06:01:56;;;;;;;3.08;1.23;;;5.30;99.90;;;;;;5082427;28;20205;-78
2021/11/27 06:04:23;;;;;;;3.83;1.50;;;5.60;99.90;;;;;;5080649;28;20714;-78
2021/11/27 06:06:51;;;;;;;3.60;1.65;;;5.50;99.90;;;;;;5080731;28;20602;-78
2021/11/27 06:09:18;;;;;;;3.42;1.70;;;5.50;99.90;;;;;;5079852;28;20551;-78
2021/11/27 06:11:45;;;;;;;2.70;1.20;;;5.40;99.90;;;;;;5080094;28;20221;-78
2021/11/27 06:14:12;;;;;;;4.38;1.80;;;5.70;99.90;;;;;;5080595;28;20285;-78
2021/11/27 06:16:39;;;;;;;3.50;1.60;;;5.70;99.90;;;;;;5079992;28;20335;-78
2021/11/27 06:19:06;;;;;;;3.85;1.70;;;5.60;99.90;;;;;;5078010;28;20232;-78
2021/11/27 06:21:33;;;;;;;2.88;1.30;;;5.70;99.90;;;;;;5077485;28;20210;-78
2021/11/27 06:24:02;;;;;;;3.17;1.30;;;5.80;99.90;;;;;;5079966;28;20210;-78
2021/11/27 06:26:28;;;;;;;3.08;1.52;;;5.60;99.90;;;;;;5079084;28;20209;-78
2021/11/27 06:28:55;;;;;;;3.50;1.50;;;5.70;99.90;;;;;;5080020;28;20216;-78
2021/11/27 06:31:22;;;;;;;3.10;1.48;;;5.70;99.90;;;;;;5080441;28;20198;-78
2021/11/27 06:33:49;;;;;;;3.40;1.52;;;5.70;99.90;;;;;;5079825;28;20225;-78
2021/11/27 06:36:15;;;;;;;4.03;1.80;;;5.70;99.90;;;;;;5079753;28;20189;-78
2021/11/27 06:38:42;;;;;;;3.40;1.60;;;5.70;99.90;;;;;;5079749;28;20217;-78
2021/11/27 06:41:10;;;;;;;3.72;1.65;;;5.70;99.90;;;;;;5079679;28;20226;-78
2021/11/27 06:43:37;;;;;;;3.50;1.67;;;5.70;99.90;;;;;;5083932;28;20217;-78
2021/11/27 06:46:04;;;;;;;4.22;1.90;;;5.30;99.90;;;;;;5085871;28;20217;-78
2021/11/27 06:48:31;;;;;;;4.43;1.52;;;5.60;99.90;;;;;;5078995;28;20581;-79
2021/11/27 06:50:58;;;;;;;4.03;1.67;;;5.70;99.90;;;;;;5078647;28;20240;-79
2021/11/27 06:53:25;;;;;;;3.53;1.42;;;5.50;99.90;;;;;;5080898;28;20225;-79
2021/11/27 06:55:52;;;;;;;3.50;1.52;;;5.70;99.90;;;;;;5079069;28;20205;-78
2021/11/27 06:58:20;;;;;;;4.40;2.00;;;5.50;99.90;;;;;;5078807;28;20244;-77
2021/11/27 07:00:46;;;;;;;3.38;1.45;;;5.60;99.90;;;;;;5077270;28;20674;-78
2021/11/27 07:03:13;;;;;;;3.22;1.50;;;5.70;99.90;;;;;;5076803;28;20649;-78
2021/11/27 07:05:40;;;;;;;3.15;1.50;;;5.70;99.90;;;;;;5077373;28;20550;-78
2021/11/27 07:08:08;;;;;;;3.53;1.40;;;5.70;99.90;;;;;;5086082;28;20189;-78
2021/11/27 07:10:35;;;;;;;3.13;1.42;;;5.60;99.90;;;;;;5095576;28;20247;-80
2021/11/27 07:13:03;;;;;;;3.63;1.42;;;5.70;99.90;;;;;;5084798;28;20223;-79
2021/11/27 07:15:31;;;;;;;4.25;1.60;;;5.70;99.90;;;;;;5079930;28;20645;-78
2021/11/27 07:17:58;;;;;;;2.95;1.15;;;5.60;99.90;;;;;;5078515;28;20508;-78
2021/11/27 07:20:24;;;;;;;4.43;1.90;;;5.80;99.90;;;;;;5078757;28;20304;-78
2021/11/27 07:22:51;;;;;;;3.80;1.58;;;5.60;99.90;;;;;;5077719;28;20209;-78
2021/11/27 07:25:18;;;;;;;3.85;1.35;;;5.80;99.90;;;;;;5076163;28;20209;-78
2021/11/27 07:27:45;;;;;;;5.15;1.90;;;5.60;99.90;;;;;;5079665;28;20209;-78
2021/11/27 07:30:12;;;;;;;3.65;1.23;;;5.60;99.90;;;;;;5080502;28;20231;-78
2021/11/27 07:32:40;;;;;;;3.92;1.88;;;5.70;99.90;;;;;;5079096;28;20205;-79
2021/11/27 07:35:08;;;;;;;4.30;1.50;;;5.60;99.90;;;;;;5079044;28;20229;-78
2021/11/27 07:37:35;;;;;;;4.45;1.60;;;5.70;99.90;;;;;;5080133;28;20296;-78
2021/11/27 07:40:02;;;;;;;3.65;1.60;;;5.70;99.90;;;;;;5079961;28;20225;-78
2021/11/27 07:42:29;;;;;;;3.85;2.15;;;5.50;99.90;;;;;;5080216;28;20692;-78
2021/11/27 07:44:56;;;;;;;4.88;1.92;;;5.70;99.90;;;;;;5079784;28;20205;-78
2021/11/27 07:47:23;;;;;;;3.63;1.75;;;5.70;99.90;;;;;;5078864;28;20213;-79
2021/11/27 07:49:51;;;;;;;4.13;1.90;;;5.70;99.90;;;;;;5077007;28;20658;-78
2021/11/27 07:52:21;;;;;;;3.80;1.70;;;5.70;99.90;;;;;;5074311;28;20700;-78
2021/11/27 07:54:48;;;;;;;4.90;2.00;;;5.60;99.90;;;;;;5077423;28;20248;-79
2021/11/27 07:57:15;;;;;;;3.65;1.60;;;5.60;99.90;;;;;;5077550;28;20321;-79
2021/11/27 07:59:42;;;;;;;3.50;1.58;;;5.60;99.90;;;;;;5078193;28;20551;-79
2021/11/27 08:02:09;;;;;;;3.83;1.70;;;5.70;99.90;;;;;;5078076;28;20232;-79
2021/11/27 08:04:36;;;;;;;3.10;1.42;;;5.60;99.90;;;;;;5078708;28;20300;-79
2021/11/27 08:07:04;;;;;;;3.42;1.75;;;5.60;99.90;;;;;;5078752;28;20210;-78
2021/11/27 08:09:31;;;;;;;4.00;1.98;;;5.50;99.90;;;;;;5078959;28;20560;-77
2021/11/27 08:11:57;;;;;;;4.80;1.95;;;5.70;99.90;;;;;;5079267;28;20239;-79
2021/11/27 08:14:28;;;;;;;3.95;1.75;;;5.80;99.90;;;;;;5085083;28;20229;-79
2021/11/27 08:16:54;;;;;;;4.85;2.10;;;5.70;99.90;;;;;;5091673;28;20190;-79
2021/11/27 08:19:21;;;;;;;3.63;1.90;;;5.70;99.90;;;;;;5082712;28;20309;-79
2021/11/27 08:21:48;;;;;;;6.40;1.75;;;5.80;99.90;;;;;;5078118;28;20213;-79
2021/11/27 08:24:16;;;;;;;3.95;1.92;;;5.70;99.90;;;;;;5078504;28;20209;-79
2021/11/27 08:26:43;;;;;;;3.53;1.52;;;5.90;99.90;;;;;;5079079;28;20205;-79
2021/11/27 08:29:10;;;;;;;3.50;1.60;;;6.00;99.90;;;;;;5078439;28;20205;-79
2021/11/27 08:31:38;;;;;;;4.15;1.48;;;5.90;99.90;;;;;;5079174;28;20212;-79
2021/11/27 08:34:06;;;;;;;3.85;1.85;;;6.10;99.90;;;;;;5078555;28;20243;-79
2021/11/27 08:36:33;;;;;;;4.10;1.90;;;6.30;99.90;;;;;;5079672;28;20201;-79
2021/11/27 08:39:00;;;;;;;4.30;1.70;;;6.20;99.90;;;;;;5078201;28;20209;-79
2021/11/27 08:41:28;;;;;;;3.80;1.90;;;6.30;99.90;;;;;;5078516;28;20216;-79
2021/11/27 08:43:55;;;;;;;3.60;1.88;;;6.30;99.90;;;;;;5078288;28;20212;-79
2021/11/27 08:46:22;;;;;;;4.07;1.80;;;6.30;99.90;;;;;;5083225;28;20618;-78
2021/11/27 08:48:48;;;;;;;3.63;1.85;;;6.40;99.90;;;;;;5080993;28;20236;-79
2021/11/27 08:51:15;;;;;;;3.63;1.35;;;6.30;99.90;;;;;;5082986;28;20225;-79
2021/11/27 08:53:42;;;;;;;4.25;1.85;;;6.50;99.90;;;;;;5082328;28;20222;-79
2021/11/27 08:56:11;;;;;;;4.95;2.60;;;6.50;99.90;;;;;;5083459;28;20215;-79
2021/11/27 08:58:42;;;;;;;3.60;1.63;;;6.40;99.90;;;;;;5082098;28;20235;-81
2021/11/27 09:01:12;;;;;;;3.10;1.40;;;6.50;99.90;;;;;;5083266;28;20237;-77
2021/11/27 09:03:39;;;;;;;3.75;1.45;;;6.80;99.90;;;;;;5084702;28;20209;-78
2021/11/27 09:06:07;;;;;;;4.25;1.50;;;6.70;99.90;;;;;;5088478;28;20233;-78
2021/11/27 09:08:35;;;;;;;4.40;1.40;;;7.00;99.90;;;;;;5087305;28;20210;-78
2021/11/27 09:11:02;;;;;;;4.00;1.60;;;7.00;99.90;;;;;;5082427;28;20221;-79
2021/11/27 09:13:29;;;;;;;3.10;1.33;;;7.20;99.90;;;;;;5081908;28;20216;-78
2021/11/27 09:15:58;;;;;;;5.82;2.03;;;7.00;99.90;;;;;;5082251;28;20229;-78
2021/11/27 09:18:25;;;;;;;4.15;1.30;;;7.00;99.90;;;;;;5082018;28;20211;-78
2021/11/27 09:20:51;;;;;;;4.22;1.50;;;7.10;99.90;;;;;;5081071;28;20262;-78
2021/11/27 09:23:18;;;;;;;3.72;1.50;;;7.10;99.90;;;;;;5079129;28;20209;-78
2021/11/27 09:25:45;;;;;;;4.25;1.63;;;7.00;99.90;;;;;;5082031;28;20268;-78
2021/11/27 09:28:12;;;;;;;5.05;1.40;;;7.20;99.90;;;;;;5082373;28;20225;-78
2021/11/27 09:30:39;;;;;;;3.35;1.65;;;7.40;99.90;;;;;;5083920;28;20241;-78
2021/11/27 09:33:07;;;;;;;4.93;2.05;;;7.40;99.90;;;;;;5080853;28;20214;-78
2021/11/27 09:35:34;;;;;;;3.05;1.48;;;7.50;99.90;;;;;;5081676;28;20252;-79
2021/11/27 09:38:01;;;;;;;3.60;2.17;;;7.50;99.90;;;;;;5079225;28;20680;-80
2021/11/27 09:40:28;;;;;;;6.10;1.50;;;7.60;99.90;;;;;;5077764;28;20249;-79
2021/11/27 09:42:55;;;;;;;4.05;1.58;;;7.60;99.90;;;;;;5084661;28;20205;-79
2021/11/27 09:45:25;;;;;;;3.70;1.35;;;7.70;99.90;;;;;;5088103;28;20250;-79
2021/11/27 09:47:53;;;;;;;5.95;1.30;;;7.80;99.90;;;;;;5084072;28;20635;-78
2021/11/27 09:50:23;;;;;;;4.25;1.25;;;7.70;99.90;;;;;;5090429;28;20242;-78
2021/11/27 09:52:50;;;;;;;3.00;1.27;;;7.50;99.90;;;;;;5082989;28;20211;-79
2021/11/27 09:55:17;;;;;;;4.22;1.17;;;7.50;99.90;;;;;;5079170;28;20229;-79
2021/11/27 09:57:44;;;;;;;3.95;1.30;;;7.50;99.90;;;;;;5076928;28;20218;-78
2021/11/27 10:00:14;;;;;;;2.92;1.20;;;7.60;99.90;;;;;;5076821;28;20236;-78
2021/11/27 10:02:42;;;;;;;3.58;1.30;;;7.40;99.90;;;;;;5079757;28;20201;-79
2021/11/27 10:05:11;;;;;;;2.88;1.20;;;7.30;99.90;;;;;;5079765;28;20262;-78
2021/11/27 10:07:42;;;;;;;4.15;1.38;;;7.40;99.90;;;;;;5080336;28;20205;-78
2021/11/27 10:10:11;;;;;;;4.32;1.17;;;7.40;99.90;;;;;;5081144;28;20257;-78
2021/11/27 10:12:41;;;;;;;3.17;1.30;;;7.40;99.90;;;;;;5079728;28;20224;-79
2021/11/27 10:15:09;;;;;;;3.83;1.60;;;7.00;99.90;;;;;;5079584;28;20217;-79
2021/11/27 10:17:36;;;;;;;7.43;1.75;;;7.20;99.90;;;;;;5079666;28;20213;-78
2021/11/27 10:20:05;;;;;;;3.47;1.52;;;7.30;99.90;;;;;;5076985;28;20671;-79
2021/11/27 10:22:47;;;;;;;4.03;1.27;;;7.40;99.90;;;;;;5077901;28;20215;-79
2021/11/27 10:25:34;;;;;;;4.75;1.50;;;7.70;99.90;;;;;;5079117;28;20273;-78
2021/11/27 10:28:04;;;;;;;3.08;1.23;;;7.60;99.90;;;;;;5077872;28;20199;-78
2021/11/27 10:30:47;;;;;;;6.35;2.05;;;7.40;99.90;;;;;;5081732;28;20313;-78
2021/11/27 10:33:14;;;;;;;3.22;1.50;;;7.60;99.90;;;;;;5079583;28;20191;-77
2021/11/27 10:35:53;;;;;;;4.10;2.17;;;7.60;99.90;;;;;;5083684;28;20234;-79
2021/11/27 10:38:34;;;;;;;4.55;1.33;;;7.60;99.90;;;;;;5089933;28;20201;-79
2021/11/27 10:41:01;;;;;;;4.07;1.67;;;7.60;99.90;;;;;;5077531;28;20222;-78
2021/11/27 10:43:28;;;;;;;4.55;1.50;;;7.30;99.90;;;;;;5079108;28;20210;-79
2021/11/27 10:45:55;;;;;;;3.80;1.55;;;7.50;99.90;;;;;;5080919;28;20216;-78
2021/11/27 10:48:24;;;;;;;3.92;1.70;;;7.50;99.90;;;;;;5078213;28;20594;-79
2021/11/27 10:50:53;;;;;;;4.00;1.27;;;7.70;99.90;;;;;;5081295;28;20668;-78
2021/11/27 10:53:23;;;;;;;3.38;1.15;;;7.80;99.90;;;;;;5077373;28;20210;-78
2021/11/27 10:55:50;;;;;;;3.92;1.52;;;7.70;99.90;;;;;;5077643;28;20221;-77
2021/11/27 10:58:19;;;;;;;3.28;1.30;;;7.70;99.90;;;;;;5079712;28;20232;-79
2021/11/27 11:00:48;;;;;;;4.30;1.60;;;7.70;99.90;;;;;;5082342;28;20234;-79
2021/11/27 11:03:26;;;;;;;5.13;1.40;;;7.80;99.90;;;;;;5081058;28;20211;-79
2021/11/27 11:05:55;;;;;;;3.17;1.40;;;7.80;99.90;;;;;;5079511;28;20285;-78
2021/11/27 11:08:33;;;;;;;4.13;1.63;;;7.80;99.90;;;;;;5078854;28;20210;-78
2021/11/27 11:11:02;;;;;;;4.70;1.50;;;7.80;99.90;;;;;;5080087;28;20580;-78
2021/11/27 11:13:31;;;;;;;5.40;1.80;;;7.80;99.90;;;;;;5076319;28;20218;-78
2021/11/27 11:16:08;;;;;;;2.92;1.35;;;7.60;99.90;;;;;;5077404;28;20221;-79
2021/11/27 11:18:36;;;;;;;4.50;1.30;;;7.90;99.90;;;;;;5082576;28;20287;-79
2021/11/27 11:21:05;;;;;;;5.30;1.45;;;8.00;99.90;;;;;;5087620;28;20231;-79
2021/11/27 11:23:35;;;;;;;3.78;1.77;;;8.00;99.90;;;;;;5081901;28;20273;-78
2021/11/27 11:26:05;;;;;;;3.53;1.55;;;8.00;99.90;;;;;;5079943;28;20580;-79
2021/11/27 11:28:35;;;;;;;3.70;1.25;;;8.10;99.90;;;;;;5084152;28;20222;-79
2021/11/27 11:31:06;;;;;;;3.60;1.50;;;8.00;99.90;;;;;;5078253;28;20254;-79
2021/11/27 11:33:35;;;;;;;3.53;1.50;;;8.00;99.90;;;;;;5076253;28;20217;-78
2021/11/27 11:36:05;;;;;;;2.90;1.27;;;8.10;99.90;;;;;;5079114;28;20711;-78
2021/11/27 11:38:32;;;;;;;5.93;2.58;;;8.00;99.90;;;;;;5077820;28;20217;-78
2021/11/27 11:41:00;;;;;;;4.22;1.50;;;8.00;99.90;;;;;;5075127;28;20833;-78
2021/11/27 11:43:27;;;;;;;4.85;1.70;;;7.90;99.90;;;;;;5078375;28;20214;-79
2021/11/27 11:45:53;;;;;;;8.45;1.95;;;7.90;99.90;;;;;;5076399;28;20233;-78
2021/11/27 11:48:23;;;;;;;4.18;1.45;;;7.90;99.90;;;;;;5077143;28;20220;-79
2021/11/27 11:50:59;;;;;;;3.67;1.65;;;7.90;99.90;;;;;;5078324;28;20610;-79
2021/11/27 11:53:33;;;;;;;4.88;1.73;;;7.90;99.90;;;;;;5078913;28;20198;-78
2021/11/27 11:56:05;;;;;;;4.05;1.85;;;8.00;99.90;;;;;;5078213;28;20711;-79
2021/11/27 11:58:33;;;;;;;4.10;1.83;;;7.90;99.90;;;;;;5077892;28;20516;-79
2021/11/27 12:01:03;;;;;;;4.68;1.83;;;8.10;99.90;;;;;;5090082;22;20242;-83
2021/11/27 12:03:36;;;;;;;4.78;2.28;;;8.20;99.90;;;;;;5061520;28;20215;-83
2021/11/27 12:06:09;;;;;;;3.00;1.33;;;8.10;99.90;;;;;;5060660;28;20206;-84
2021/11/27 12:08:58;;;;;;;6.47;1.60;;;8.10;99.90;;;;;;5059596;28;20223;-83
2021/11/27 12:11:57;;;;;;;5.85;1.70;;;8.10;99.90;;;;;;5062849;28;20239;-84
2021/11/27 12:14:59;;;;;;;6.15;2.67;;;8.10;99.90;;;;;;5061808;28;20610;-83
2021/11/27 12:17:26;;;;;;;3.20;1.50;;;8.10;99.90;;;;;;5061843;28;20211;-83
2021/11/27 12:19:54;;;;;;;5.30;1.95;;;8.00;99.90;;;;;;5059489;28;20647;-84
2021/11/27 12:22:38;;;;;;;5.28;1.90;;;7.90;99.90;;;;;;5059671;28;20203;-83
2021/11/27 12:25:08;;;;;;;2.85;1.17;;;7.90;99.90;;;;;;5062123;28;20192;-83
2021/11/27 12:28:07;;;;;;;4.88;1.40;;;7.90;99.90;;;;;;5063552;28;20213;-84
2021/11/27 12:30:56;;;;;;;3.88;1.60;;;7.90;99.90;;;;;;5062198;28;20222;-83
2021/11/27 12:33:43;;;;;;;5.07;1.80;;;8.00;99.90;;;;;;5061930;28;20192;-83
2021/11/27 12:36:40;;;;;;;6.55;2.45;;;8.00;99.90;;;;;;5064032;28;20280;-84
2021/11/27 12:39:08;;;;;;;4.40;2.00;;;8.00;99.90;;;;;;5050279;28;20222;-84
2021/11/27 12:41:37;;;;;;;5.68;1.75;;;8.00;99.90;;;;;;5063032;28;20352;-83
2021/11/27 12:44:21;;;;;;;3.70;2.05;;;8.10;99.90;;;;;;5061979;28;20212;-83
2021/11/27 12:46:50;;;;;;;4.38;1.90;;;8.10;99.90;;;;;;5064070;28;20576;-83
2021/11/27 12:49:58;;;;;;;4.65;1.90;;;8.10;99.90;;;;;;5062239;28;20539;-83
2021/11/27 12:52:42;;;;;;;4.55;2.08;;;8.00;99.90;;;;;;5032757;28;20214;-82
2021/11/27 12:55:29;;;;;;;4.97;2.38;;;8.10;99.90;;;;;;5062850;28;20210;-83
2021/11/27 12:57:55;;;;;;;5.75;1.48;;;8.00;99.90;;;;;;5061187;28;20213;-83
2021/11/27 13:00:26;;;;;;;3.08;1.20;;;8.10;99.90;;;;;;5061225;28;20322;-83
2021/11/27 13:02:55;;;;;;;4.95;1.20;;;8.00;99.90;;;;;;5062501;28;20313;-84
2021/11/27 13:05:24;;;;;;;3.38;1.30;;;7.90;99.90;;;;;;5062478;28;20244;-83
2021/11/27 13:07:50;;;;;;;2.67;0.90;;;7.90;99.90;;;;;;5062709;28;20207;-83